sensor_id;sensor_type;location;lat;lon;timestamp;temperature;humidity
14357;DHT22;7262;48.764;9.166;2024-03-02T00:30:28;6.30;99.90
14357;DHT22;7262;48.764;9.166;2024-03-02T00:33:06;6.30;99.90
14357;DHT22;7262;48.764;9.166;2024-03-02T00:35:33;6.30;99.90
14357;DHT22;7262;48.764;9.166;2024-03-02T00:51:01;6.40;99.90
14357;DHT22;7262;48.764;9.166;2024-03-02T00:53:30;6.40;99.90
14357;DHT22;7262;48.764;9.166;2024-03-02T00:58:42;6.50;99.90
14357;DHT22;7262;48.764;9.166;2024-03-02T01:03:51;6.60;99.90
14357;DHT22;7262;48.764;9.166;2024-03-02T01:06:20;6.60;99.90
14357;DHT22;7262;48.764;9.166;2024-03-02T01:08:47;6.60;99.90
14357;DHT22;7262;48.764;9.166;2024-03-02T01:11:17;6.60;99.90
14357;DHT22;7262;48.764;9.166;2024-03-02T01:13:44;6.60;99.90
14357;DHT22;7262;48.764;9.166;2024-03-02T01:16:11;6.60;99.90
14357;DHT22;7262;48.764;9.166;2024-03-02T01:18:38;6.60;99.90
14357;DHT22;7262;48.764;9.166;2024-03-02T01:21:05;6.50;99.90
14357;DHT22;7262;48.764;9.166;2024-03-02T01:23:34;6.50;99.90
14357;DHT22;7262;48.764;9.166;2024-03-02T01:26:01;6.50;99.90
14357;DHT22;7262;48.764;9.166;2024-03-02T01:28:27;6.40;99.90
14357;DHT22;7262;48.764;9.166;2024-03-02T01:30:54;6.40;99.90
14357;DHT22;7262;48.764;9.166;2024-03-02T01:33:21;6.40;99.90
14357;DHT22;7262;48.764;9.166;2024-03-02T01:35:48;6.40;99.90
14357;DHT22;7262;48.764;9.166;2024-03-02T01:38:15;6.40;99.90
14357;DHT22;7262;48.764;9.166;2024-03-02T01:40:43;6.40;99.90
14357;DHT22;7262;48.764;9.166;2024-03-02T01:43:11;6.30;99.90
14357;DHT22;7262;48.764;9.166;2024-03-02T01:45:38;6.30;99.90
14357;DHT22;7262;48.764;9.166;2024-03-02T01:48:05;6.30;99.90
14357;DHT22;7262;48.764;9.166;2024-03-02T01:50:32;6.20;99.90
14357;DHT22;7262;48.764;9.166;2024-03-02T01:52:59;6.10;99.90
14357;DHT22;7262;48.764;9.166;2024-03-02T01:55:26;6.10;99.90
14357;DHT22;7262;48.764;9.166;2024-03-02T01:57:56;6.00;99.90
14357;DHT22;7262;48.764;9.166;2024-03-02T02:00:23;6.00;99.90
14357;DHT22;7262;48.764;9.166;2024-03-02T02:02:51;6.00;99.90
14357;DHT22;7262;48.764;9.166;2024-03-02T02:05:18;5.90;99.90
14357;DHT22;7262;48.764;9.166;2024-03-02T02:07:45;5.80;99.90
14357;DHT22;7262;48.764;9.166;2024-03-02T02:10:12;5.70;99.90
14357;DHT22;7262;48.764;9.166;2024-03-02T02:12:39;5.70;99.90
14357;DHT22;7262;48.764;9.166;2024-03-02T03:41:23;4.30;99.90
14357;DHT22;7262;48.764;9.166;2024-03-02T03:43:50;4.30;99.90
14357;DHT22;7262;48.764;9.166;2024-03-02T03:46:17;4.30;99.90
14357;DHT22;7262;48.764;9.166;2024-03-02T03:48:44;4.20;99.90
14357;DHT22;7262;48.764;9.166;2024-03-02T03:51:11;4.20;99.90
14357;DHT22;7262;48.764;9.166;2024-03-02T03:53:37;4.20;99.90
14357;DHT22;7262;48.764;9.166;2024-03-02T03:56:05;4.20;99.90
14357;DHT22;7262;48.764;9.166;2024-03-02T03:58:33;4.20;99.90
14357;DHT22;7262;48.764;9.166;2024-03-02T04:01:00;4.10;99.90
14357;DHT22;7262;48.764;9.166;2024-03-02T04:03:27;4.10;99.90
14357;DHT22;7262;48.764;9.166;2024-03-02T04:05:54;4.10;99.90
14357;DHT22;7262;48.764;9.166;2024-03-02T04:26:30;4.10;99.90
14357;DHT22;7262;48.764;9.166;2024-03-02T04:28:57;4.00;99.90
14357;DHT22;7262;48.764;9.166;2024-03-02T04:41:48;4.10;99.90
14357;DHT22;7262;48.764;9.166;2024-03-02T04:44:15;4.00;99.90
14357;DHT22;7262;48.764;9.166;2024-03-02T04:46:42;4.00;99.90
14357;DHT22;7262;48.764;9.166;2024-03-02T06:55:10;4.70;99.90
14357;DHT22;7262;48.764;9.166;2024-03-02T06:57:37;4.80;99.90
14357;DHT22;7262;48.764;9.166;2024-03-02T07:00:04;4.90;99.90
14357;DHT22;7262;48.764;9.166;2024-03-02T07:02:34;5.00;99.90
14357;DHT22;7262;48.764;9.166;2024-03-02T07:05:01;5.10;99.90
14357;DHT22;7262;48.764;9.166;2024-03-02T07:07:28;5.30;99.90
14357;DHT22;7262;48.764;9.166;2024-03-02T07:09:55;5.40;99.90
14357;DHT22;7262;48.764;9.166;2024-03-02T07:12:23;5.60;99.90
14357;DHT22;7262;48.764;9.166;2024-03-02T07:14:50;5.70;99.90
14357;DHT22;7262;48.764;9.166;2024-03-02T07:17:34;5.90;99.90
14357;DHT22;7262;48.764;9.166;2024-03-02T07:20:02;6.00;99.90
14357;DHT22;7262;48.764;9.166;2024-03-02T07:22:30;6.20;99.90
14357;DHT22;7262;48.764;9.166;2024-03-02T07:25:05;6.30;99.90
14357;DHT22;7262;48.764;9.166;2024-03-02T07:27:34;6.50;99.90
14357;DHT22;7262;48.764;9.166;2024-03-02T07:30:01;6.70;99.90
14357;DHT22;7262;48.764;9.166;2024-03-02T07:32:28;6.80;99.90
14357;DHT22;7262;48.764;9.166;2024-03-02T07:34:55;6.90;99.90
14357;DHT22;7262;48.764;9.166;2024-03-02T07:37:22;7.00;99.90
14357;DHT22;7262;48.764;9.166;2024-03-02T07:39:49;7.10;99.90
14357;DHT22;7262;48.764;9.166;2024-03-02T07:42:18;7.20;99.90
14357;DHT22;7262;48.764;9.166;2024-03-02T07:44:47;7.30;99.90
14357;DHT22;7262;48.764;9.166;2024-03-02T07:47:14;7.30;99.90
14357;DHT22;7262;48.764;9.166;2024-03-02T07:49:44;7.40;99.90
14357;DHT22;7262;48.764;9.166;2024-03-02T07:52:11;7.40;99.90
14357;DHT22;7262;48.764;9.166;2024-03-02T07:54:38;7.40;99.90
14357;DHT22;7262;48.764;9.166;2024-03-02T07:57:05;7.40;99.90
14357;DHT22;7262;48.764;9.166;2024-03-02T07:59:31;7.40;99.90
14357;DHT22;7262;48.764;9.166;2024-03-02T08:02:02;7.50;99.90
14357;DHT22;7262;48.764;9.166;2024-03-02T08:04:29;7.50;99.90
14357;DHT22;7262;48.764;9.166;2024-03-02T08:06:57;7.60;99.90
14357;DHT22;7262;48.764;9.166;2024-03-02T08:09:24;7.70;99.90
14357;DHT22;7262;48.764;9.166;2024-03-02T08:11:51;7.80;99.90
14357;DHT22;7262;48.764;9.166;2024-03-02T08:14:18;7.80;99.90
14357;DHT22;7262;48.764;9.166;2024-03-02T08:16:44;7.80;99.90
14357;DHT22;7262;48.764;9.166;2024-03-02T08:19:13;7.90;99.90
14357;DHT22;7262;48.764;9.166;2024-03-02T08:21:40;8.00;99.90
14357;DHT22;7262;48.764;9.166;2024-03-02T08:24:07;8.10;99.90
14357;DHT22;7262;48.764;9.166;2024-03-02T08:26:34;8.30;99.90
14357;DHT22;7262;48.764;9.166;2024-03-02T08:29:04;8.40;99.90
14357;DHT22;7262;48.764;9.166;2024-03-02T08:31:31;8.60;99.90
14357;DHT22;7262;48.764;9.166;2024-03-02T08:33:58;8.70;99.90
14357;DHT22;7262;48.764;9.166;2024-03-02T08:36:26;8.80;99.90
14357;DHT22;7262;48.764;9.166;2024-03-02T08:38:53;8.90;99.90
14357;DHT22;7262;48.764;9.166;2024-03-02T09:16:36;14.20;99.90
14357;DHT22;7262;48.764;9.166;2024-03-02T09:19:03;14.90;99.90
14357;DHT22;7262;48.764;9.166;2024-03-02T09:21:30;15.00;99.90
14357;DHT22;7262;48.764;9.166;2024-03-02T09:23:57;15.50;99.90
14357;DHT22;7262;48.764;9.166;2024-03-02T09:29:30;16.20;99.90
14357;DHT22;7262;48.764;9.166;2024-03-02T09:31:59;16.80;99.90
14357;DHT22;7262;48.764;9.166;2024-03-02T09:34:26;16.90;99.90
14357;DHT22;7262;48.764;9.166;2024-03-02T09:36:53;16.80;99.90
14357;DHT22;7262;48.764;9.166;2024-03-02T09:39:20;17.40;99.90
14357;DHT22;7262;48.764;9.166;2024-03-02T09:41:48;17.90;99.90
14357;DHT22;7262;48.764;9.166;2024-03-02T09:44:15;18.80;99.90
14357;DHT22;7262;48.764;9.166;2024-03-02T09:46:42;19.40;99.90
14357;DHT22;7262;48.764;9.166;2024-03-02T09:49:10;19.60;99.90
14357;DHT22;7262;48.764;9.166;2024-03-02T09:51:37;19.00;99.90
14357;DHT22;7262;48.764;9.166;2024-03-02T09:54:04;18.20;99.90
14357;DHT22;7262;48.764;9.166;2024-03-02T09:56:33;18.50;99.90
14357;DHT22;7262;48.764;9.166;2024-03-02T09:59:01;19.20;99.90
14357;DHT22;7262;48.764;9.166;2024-03-02T10:01:28;19.40;99.90
14357;DHT22;7262;48.764;9.166;2024-03-02T10:03:55;18.80;99.90
14357;DHT22;7262;48.764;9.166;2024-03-02T10:06:23;17.20;99.90
14357;DHT22;7262;48.764;9.166;2024-03-02T10:08:54;16.30;99.90
14357;DHT22;7262;48.764;9.166;2024-03-02T10:11:28;16.90;99.90
14357;DHT22;7262;48.764;9.166;2024-03-02T10:14:03;17.70;99.90
14357;DHT22;7262;48.764;9.166;2024-03-02T10:19:17;19.20;99.90
14357;DHT22;7262;48.764;9.166;2024-03-02T10:24:36;19.30;99.90
14357;DHT22;7262;48.764;9.166;2024-03-02T10:27:07;19.60;99.90
14357;DHT22;7262;48.764;9.166;2024-03-02T10:29:36;20.00;99.90
14357;DHT22;7262;48.764;9.166;2024-03-02T10:32:03;19.70;99.90
14357;DHT22;7262;48.764;9.166;2024-03-02T10:34:31;19.70;99.90
14357;DHT22;7262;48.764;9.166;2024-03-02T10:36:59;19.80;99.90
14357;DHT22;7262;48.764;9.166;2024-03-02T10:49:56;19.60;99.90
14357;DHT22;7262;48.764;9.166;2024-03-02T10:52:27;18.90;99.90
14357;DHT22;7262;48.764;9.166;2024-03-02T10:54:54;19.20;99.90
14357;DHT22;7262;48.764;9.166;2024-03-02T10:57:21;19.50;99.90
14357;DHT22;7262;48.764;9.166;2024-03-02T10:59:51;19.90;99.90
14357;DHT22;7262;48.764;9.166;2024-03-02T11:02:18;20.10;99.90
14357;DHT22;7262;48.764;9.166;2024-03-02T11:04:47;20.20;99.90
14357;DHT22;7262;48.764;9.166;2024-03-02T11:07:17;19.70;99.90
14357;DHT22;7262;48.764;9.166;2024-03-02T11:09:51;19.80;99.90
14357;DHT22;7262;48.764;9.166;2024-03-02T11:12:22;19.70;99.90
14357;DHT22;7262;48.764;9.166;2024-03-02T11:14:49;19.70;99.90
14357;DHT22;7262;48.764;9.166;2024-03-02T11:17:17;20.30;99.90
14357;DHT22;7262;48.764;9.166;2024-03-02T11:19:44;20.30;99.90
14357;DHT22;7262;48.764;9.166;2024-03-02T11:22:12;20.80;99.90
14357;DHT22;7262;48.764;9.166;2024-03-02T11:24:41;20.50;99.90
14357;DHT22;7262;48.764;9.166;2024-03-02T11:27:14;20.00;99.90
14357;DHT22;7262;48.764;9.166;2024-03-02T11:29:44;19.80;99.90
14357;DHT22;7262;48.764;9.166;2024-03-02T11:37:29;21.30;99.90
14357;DHT22;7262;48.764;9.166;2024-03-02T11:39:57;21.10;99.90
14357;DHT22;7262;48.764;9.166;2024-03-02T11:42:25;21.60;99.90
14357;DHT22;7262;48.764;9.166;2024-03-02T11:44:52;21.60;99.90
14357;DHT22;7262;48.764;9.166;2024-03-02T11:47:22;21.70;99.90
14357;DHT22;7262;48.764;9.166;2024-03-02T11:49:50;22.00;99.90
14357;DHT22;7262;48.764;9.166;2024-03-02T11:52:17;22.00;99.90
14357;DHT22;7262;48.764;9.166;2024-03-02T11:54:45;21.60;99.90
14357;DHT22;7262;48.764;9.166;2024-03-02T11:57:18;21.10;99.90
14357;DHT22;7262;48.764;9.166;2024-03-02T11:59:46;21.30;99.90
14357;DHT22;7262;48.764;9.166;2024-03-02T12:02:15;21.50;99.90
14357;DHT22;7262;48.764;9.166;2024-03-02T12:04:43;20.90;99.90
14357;DHT22;7262;48.764;9.166;2024-03-02T12:07:10;20.70;99.90
14357;DHT22;7262;48.764;9.166;2024-03-02T12:09:37;20.80;99.90
14357;DHT22;7262;48.764;9.166;2024-03-02T12:12:04;21.20;99.90
14357;DHT22;7262;48.764;9.166;2024-03-02T12:14:33;21.20;99.90
14357;DHT22;7262;48.764;9.166;2024-03-02T12:17:00;21.80;99.90
14357;DHT22;7262;48.764;9.166;2024-03-02T12:19:27;22.20;99.90
14357;DHT22;7262;48.764;9.166;2024-03-02T12:21:55;22.00;99.90
14357;DHT22;7262;48.764;9.166;2024-03-02T12:24:22;22.40;99.90
14357;DHT22;7262;48.764;9.166;2024-03-02T12:26:49;22.80;99.90
14357;DHT22;7262;48.764;9.166;2024-03-02T12:29:16;23.10;99.60
14357;DHT22;7262;48.764;9.166;2024-03-02T12:31:46;23.20;99.60
14357;DHT22;7262;48.764;9.166;2024-03-02T12:34:14;23.00;99.40
14357;DHT22;7262;48.764;9.166;2024-03-02T12:36:41;22.40;99.80
14357;DHT22;7262;48.764;9.166;2024-03-02T12:39:08;22.30;99.90
14357;DHT22;7262;48.764;9.166;2024-03-02T12:41:36;22.70;99.10
14357;DHT22;7262;48.764;9.166;2024-03-02T12:44:03;23.20;98.60
14357;DHT22;7262;48.764;9.166;2024-03-02T12:46:30;23.70;98.10
14357;DHT22;7262;48.764;9.166;2024-03-02T12:48:58;24.20;97.70
14357;DHT22;7262;48.764;9.166;2024-03-02T12:51:26;24.60;96.70
14357;DHT22;7262;48.764;9.166;2024-03-02T12:53:54;24.10;96.10
14357;DHT22;7262;48.764;9.166;2024-03-02T12:56:21;23.80;96.50
14357;DHT22;7262;48.764;9.166;2024-03-02T12:58:52;23.70;96.50
14357;DHT22;7262;48.764;9.166;2024-03-02T13:01:21;23.60;96.90
14357;DHT22;7262;48.764;9.166;2024-03-02T13:03:48;23.70;96.80
14357;DHT22;7262;48.764;9.166;2024-03-02T13:06:22;24.00;96.00
14357;DHT22;7262;48.764;9.166;2024-03-02T13:08:49;23.80;96.00
14357;DHT22;7262;48.764;9.166;2024-03-02T13:11:16;24.20;95.80
14357;DHT22;7262;48.764;9.166;2024-03-02T13:13:43;24.50;95.00
14357;DHT22;7262;48.764;9.166;2024-03-02T13:16:13;24.30;94.60
14357;DHT22;7262;48.764;9.166;2024-03-02T13:18:41;23.80;95.30
14357;DHT22;7262;48.764;9.166;2024-03-02T13:21:08;23.10;95.30
14357;DHT22;7262;48.764;9.166;2024-03-02T13:23:36;22.60;96.40
14357;DHT22;7262;48.764;9.166;2024-03-02T13:26:03;23.00;95.60
14357;DHT22;7262;48.764;9.166;2024-03-02T13:28:30;23.70;94.90
14357;DHT22;7262;48.764;9.166;2024-03-02T13:30:57;24.30;94.50
14357;DHT22;7262;48.764;9.166;2024-03-02T13:33:24;24.60;93.70
14357;DHT22;7262;48.764;9.166;2024-03-02T13:35:52;23.80;93.40
14357;DHT22;7262;48.764;9.166;2024-03-02T13:38:19;24.30;93.60
14357;DHT22;7262;48.764;9.166;2024-03-02T13:40:48;25.40;92.50
14357;DHT22;7262;48.764;9.166;2024-03-02T13:43:16;25.20;92.10
14357;DHT22;7262;48.764;9.166;2024-03-02T13:45:45;24.70;92.50
14357;DHT22;7262;48.764;9.166;2024-03-02T13:48:13;24.90;92.20
14357;DHT22;7262;48.764;9.166;2024-03-02T13:50:40;25.70;91.90
14357;DHT22;7262;48.764;9.166;2024-03-02T13:53:10;26.20;90.80
14357;DHT22;7262;48.764;9.166;2024-03-02T13:55:37;26.20;90.40
14357;DHT22;7262;48.764;9.166;2024-03-02T13:58:05;26.20;89.50
14357;DHT22;7262;48.764;9.166;2024-03-02T14:00:33;26.00;89.20
14357;DHT22;7262;48.764;9.166;2024-03-02T14:02:59;26.00;89.20
14357;DHT22;7262;48.764;9.166;2024-03-02T14:05:26;25.60;88.50
14357;DHT22;7262;48.764;9.166;2024-03-02T14:07:53;25.40;88.90
14357;DHT22;7262;48.764;9.166;2024-03-02T14:10:20;25.00;89.20
14357;DHT22;7262;48.764;9.166;2024-03-02T14:12:48;24.50;90.00
14357;DHT22;7262;48.764;9.166;2024-03-02T14:15:17;24.40;89.70
14357;DHT22;7262;48.764;9.166;2024-03-02T14:17:46;24.10;89.30
14357;DHT22;7262;48.764;9.166;2024-03-02T14:20:13;23.40;89.90
14357;DHT22;7262;48.764;9.166;2024-03-02T14:22:40;23.50;90.20
14357;DHT22;7262;48.764;9.166;2024-03-02T14:25:08;24.10;89.20
14357;DHT22;7262;48.764;9.166;2024-03-02T14:27:34;24.40;88.60
14357;DHT22;7262;48.764;9.166;2024-03-02T14:30:02;23.60;89.90
14357;DHT22;7262;48.764;9.166;2024-03-02T14:32:33;23.50;90.30
14357;DHT22;7262;48.764;9.166;2024-03-02T15:08:35;22.70;87.80
14357;DHT22;7262;48.764;9.166;2024-03-02T15:11:02;22.40;86.80
14357;DHT22;7262;48.764;9.166;2024-03-02T15:13:29;21.50;88.30
14357;DHT22;7262;48.764;9.166;2024-03-02T15:15:56;21.40;89.40
14357;DHT22;7262;48.764;9.166;2024-03-02T15:18:22;21.20;90.30
14357;DHT22;7262;48.764;9.166;2024-03-02T15:20:49;21.30;90.20
14357;DHT22;7262;48.764;9.166;2024-03-02T15:23:16;21.00;89.60
14357;DHT22;7262;48.764;9.166;2024-03-02T15:25:44;20.30;90.90
14357;DHT22;7262;48.764;9.166;2024-03-02T15:28:11;19.40;91.90
14357;DHT22;7262;48.764;9.166;2024-03-02T15:30:38;18.80;92.60
14357;DHT22;7262;48.764;9.166;2024-03-02T15:33:06;18.50;92.70
14357;DHT22;7262;48.764;9.166;2024-03-02T15:35:33;18.00;93.20
14357;DHT22;7262;48.764;9.166;2024-03-02T15:38:00;17.60;94.50
14357;DHT22;7262;48.764;9.166;2024-03-02T15:40:28;17.40;94.40
14357;DHT22;7262;48.764;9.166;2024-03-02T15:42:56;16.90;94.50
14357;DHT22;7262;48.764;9.166;2024-03-02T15:45:23;16.70;94.90
14357;DHT22;7262;48.764;9.166;2024-03-02T15:47:51;16.40;95.40
14357;DHT22;7262;48.764;9.166;2024-03-02T15:50:18;16.30;95.80
14357;DHT22;7262;48.764;9.166;2024-03-02T15:52:45;16.10;96.30
14357;DHT22;7262;48.764;9.166;2024-03-02T15:55:12;15.80;97.00
14357;DHT22;7262;48.764;9.166;2024-03-02T15:57:39;15.70;97.40
14357;DHT22;7262;48.764;9.166;2024-03-02T16:00:08;15.50;98.00
14357;DHT22;7262;48.764;9.166;2024-03-02T16:02:37;15.30;98.80
14357;DHT22;7262;48.764;9.166;2024-03-02T16:05:05;15.20;99.90
14357;DHT22;7262;48.764;9.166;2024-03-02T16:07:32;15.10;99.90
14357;DHT22;7262;48.764;9.166;2024-03-02T16:09:58;14.90;99.90
14357;DHT22;7262;48.764;9.166;2024-03-02T16:12:28;14.80;99.90
14357;DHT22;7262;48.764;9.166;2024-03-02T16:14:55;14.70;99.90
14357;DHT22;7262;48.764;9.166;2024-03-02T16:17:24;14.60;99.90
14357;DHT22;7262;48.764;9.166;2024-03-02T16:19:51;14.50;99.90
14357;DHT22;7262;48.764;9.166;2024-03-02T16:22:18;14.50;99.90
14357;DHT22;7262;48.764;9.166;2024-03-02T16:24:44;14.40;99.90
14357;DHT22;7262;48.764;9.166;2024-03-02T16:27:13;14.30;99.90
14357;DHT22;7262;48.764;9.166;2024-03-02T16:29:40;14.30;99.90
14357;DHT22;7262;48.764;9.166;2024-03-02T16:32:07;14.20;99.90
14357;DHT22;7262;48.764;9.166;2024-03-02T16:34:36;14.20;99.90
14357;DHT22;7262;48.764;9.166;2024-03-02T16:37:03;14.00;99.90
14357;DHT22;7262;48.764;9.166;2024-03-02T16:39:30;14.00;99.90
14357;DHT22;7262;48.764;9.166;2024-03-02T16:42:01;13.90;99.90
14357;DHT22;7262;48.764;9.166;2024-03-02T16:44:28;13.90;99.90
14357;DHT22;7262;48.764;9.166;2024-03-02T16:46:54;13.80;99.90
14357;DHT22;7262;48.764;9.166;2024-03-02T16:49:22;13.80;99.90
14357;DHT22;7262;48.764;9.166;2024-03-02T16:51:50;13.80;99.90
14357;DHT22;7262;48.764;9.166;2024-03-02T16:54:17;13.70;99.90
14357;DHT22;7262;48.764;9.166;2024-03-02T16:56:44;13.60;99.90
14357;DHT22;7262;48.764;9.166;2024-03-02T16:59:11;13.60;99.90
14357;DHT22;7262;48.764;9.166;2024-03-02T17:01:41;13.70;99.90
14357;DHT22;7262;48.764;9.166;2024-03-02T17:04:09;13.50;99.90
14357;DHT22;7262;48.764;9.166;2024-03-02T17:06:45;13.50;99.90
14357;DHT22;7262;48.764;9.166;2024-03-02T17:09:25;13.30;99.90
14357;DHT22;7262;48.764;9.166;2024-03-02T17:12:01;13.20;99.90
14357;DHT22;7262;48.764;9.166;2024-03-02T17:14:42;13.20;99.90
14357;DHT22;7262;48.764;9.166;2024-03-02T17:17:10;13.10;99.90
14357;DHT22;7262;48.764;9.166;2024-03-02T17:19:37;13.10;99.90
14357;DHT22;7262;48.764;9.166;2024-03-02T17:22:04;13.00;99.90
14357;DHT22;7262;48.764;9.166;2024-03-02T17:24:35;12.90;99.90
14357;DHT22;7262;48.764;9.166;2024-03-02T17:27:02;12.80;99.90
14357;DHT22;7262;48.764;9.166;2024-03-02T17:29:29;12.80;99.90
14357;DHT22;7262;48.764;9.166;2024-03-02T17:31:57;12.70;99.90
14357;DHT22;7262;48.764;9.166;2024-03-02T17:34:24;12.80;99.90
14357;DHT22;7262;48.764;9.166;2024-03-02T17:36:51;12.80;99.90
14357;DHT22;7262;48.764;9.166;2024-03-02T17:39:18;12.90;99.90
14357;DHT22;7262;48.764;9.166;2024-03-02T17:41:46;12.80;99.90
14357;DHT22;7262;48.764;9.166;2024-03-02T17:44:13;12.70;99.90
14357;DHT22;7262;48.764;9.166;2024-03-02T17:46:40;12.80;99.90
14357;DHT22;7262;48.764;9.166;2024-03-02T17:49:08;12.60;99.90
14357;DHT22;7262;48.764;9.166;2024-03-02T17:51:34;12.60;99.90
14357;DHT22;7262;48.764;9.166;2024-03-02T17:54:01;12.70;99.90
14357;DHT22;7262;48.764;9.166;2024-03-02T17:56:33;12.70;99.90
14357;DHT22;7262;48.764;9.166;2024-03-02T17:59:01;12.70;99.90
14357;DHT22;7262;48.764;9.166;2024-03-02T18:01:28;12.50;99.90
14357;DHT22;7262;48.764;9.166;2024-03-02T18:03:57;12.80;99.90
14357;DHT22;7262;48.764;9.166;2024-03-02T18:06:24;12.70;99.90
14357;DHT22;7262;48.764;9.166;2024-03-02T18:08:51;12.70;99.90
14357;DHT22;7262;48.764;9.166;2024-03-02T18:11:19;12.60;99.90
14357;DHT22;7262;48.764;9.166;2024-03-02T18:13:48;12.70;99.90
14357;DHT22;7262;48.764;9.166;2024-03-02T18:16:17;12.50;99.90
14357;DHT22;7262;48.764;9.166;2024-03-02T18:18:45;12.50;99.90
14357;DHT22;7262;48.764;9.166;2024-03-02T18:21:13;12.50;99.90
14357;DHT22;7262;48.764;9.166;2024-03-02T18:23:42;12.40;99.90
14357;DHT22;7262;48.764;9.166;2024-03-02T18:26:09;12.50;99.90
14357;DHT22;7262;48.764;9.166;2024-03-02T18:28:36;12.50;99.90
14357;DHT22;7262;48.764;9.166;2024-03-02T18:31:03;12.40;99.90
14357;DHT22;7262;48.764;9.166;2024-03-02T18:33:31;12.40;99.90
14357;DHT22;7262;48.764;9.166;2024-03-02T18:35:58;12.40;99.90
14357;DHT22;7262;48.764;9.166;2024-03-02T18:38:25;12.40;99.90
14357;DHT22;7262;48.764;9.166;2024-03-02T18:40:52;12.40;99.90
14357;DHT22;7262;48.764;9.166;2024-03-02T18:43:19;12.40;99.90
14357;DHT22;7262;48.764;9.166;2024-03-02T18:45:45;12.30;99.90
14357;DHT22;7262;48.764;9.166;2024-03-02T18:48:12;12.30;99.90
14357;DHT22;7262;48.764;9.166;2024-03-02T18:50:41;12.20;99.90
14357;DHT22;7262;48.764;9.166;2024-03-02T18:53:08;12.10;99.90
14357;DHT22;7262;48.764;9.166;2024-03-02T18:55:35;12.00;99.90
14357;DHT22;7262;48.764;9.166;2024-03-02T18:58:03;12.10;99.90
14357;DHT22;7262;48.764;9.166;2024-03-02T19:00:30;12.00;99.90
14357;DHT22;7262;48.764;9.166;2024-03-02T19:02:58;12.00;99.90
14357;DHT22;7262;48.764;9.166;2024-03-02T19:05:27;12.10;99.90
14357;DHT22;7262;48.764;9.166;2024-03-02T19:07:55;12.00;99.90
14357;DHT22;7262;48.764;9.166;2024-03-02T19:10:22;12.10;99.90
14357;DHT22;7262;48.764;9.166;2024-03-02T19:12:49;12.00;99.90
14357;DHT22;7262;48.764;9.166;2024-03-02T19:15:16;11.90;99.90
14357;DHT22;7262;48.764;9.166;2024-03-02T19:17:43;11.90;99.90
14357;DHT22;7262;48.764;9.166;2024-03-02T19:20:10;11.80;99.90
14357;DHT22;7262;48.764;9.166;2024-03-02T19:22:37;11.70;99.90
14357;DHT22;7262;48.764;9.166;2024-03-02T19:25:06;11.60;99.90
14357;DHT22;7262;48.764;9.166;2024-03-02T19:27:35;11.50;99.90
14357;DHT22;7262;48.764;9.166;2024-03-02T19:30:02;11.80;99.90
14357;DHT22;7262;48.764;9.166;2024-03-02T19:32:30;11.60;99.90
14357;DHT22;7262;48.764;9.166;2024-03-02T19:34:57;11.50;99.90
14357;DHT22;7262;48.764;9.166;2024-03-02T19:37:25;11.60;99.90
14357;DHT22;7262;48.764;9.166;2024-03-02T19:39:52;11.60;99.90
14357;DHT22;7262;48.764;9.166;2024-03-02T19:42:21;11.70;99.90
14357;DHT22;7262;48.764;9.166;2024-03-02T19:44:48;11.60;99.90
14357;DHT22;7262;48.764;9.166;2024-03-02T19:47:14;11.40;99.90
14357;DHT22;7262;48.764;9.166;2024-03-02T19:49:43;11.50;99.90
14357;DHT22;7262;48.764;9.166;2024-03-02T19:52:10;11.50;99.90
14357;DHT22;7262;48.764;9.166;2024-03-02T19:54:37;11.30;99.90
14357;DHT22;7262;48.764;9.166;2024-03-02T19:57:04;11.20;99.90
14357;DHT22;7262;48.764;9.166;2024-03-02T19:59:35;11.00;99.90
14357;DHT22;7262;48.764;9.166;2024-03-02T20:02:03;11.00;99.90
14357;DHT22;7262;48.764;9.166;2024-03-02T20:04:35;10.90;99.90
14357;DHT22;7262;48.764;9.166;2024-03-02T20:07:04;10.80;99.90
14357;DHT22;7262;48.764;9.166;2024-03-02T20:09:31;10.90;99.90
14357;DHT22;7262;48.764;9.166;2024-03-02T20:11:58;10.90;99.90
14357;DHT22;7262;48.764;9.166;2024-03-02T20:14:25;10.70;99.90
14357;DHT22;7262;48.764;9.166;2024-03-02T20:16:53;10.70;99.90
14357;DHT22;7262;48.764;9.166;2024-03-02T20:19:20;10.70;99.90
14357;DHT22;7262;48.764;9.166;2024-03-02T20:21:48;10.70;99.90
14357;DHT22;7262;48.764;9.166;2024-03-02T20:24:15;10.60;99.90
14357;DHT22;7262;48.764;9.166;2024-03-02T20:26:41;10.60;99.90
14357;DHT22;7262;48.764;9.166;2024-03-02T20:29:08;10.50;99.90
14357;DHT22;7262;48.764;9.166;2024-03-02T20:31:36;10.50;99.90
14357;DHT22;7262;48.764;9.166;2024-03-02T20:34:04;10.50;99.90
14357;DHT22;7262;48.764;9.166;2024-03-02T20:36:31;10.40;99.90
14357;DHT22;7262;48.764;9.166;2024-03-02T20:38:59;10.30;99.90
14357;DHT22;7262;48.764;9.166;2024-03-02T20:41:25;10.30;99.90
14357;DHT22;7262;48.764;9.166;2024-03-02T20:43:52;10.30;99.90
14357;DHT22;7262;48.764;9.166;2024-03-02T20:46:21;10.20;99.90
14357;DHT22;7262;48.764;9.166;2024-03-02T20:48:47;10.30;99.90
14357;DHT22;7262;48.764;9.166;2024-03-02T20:51:15;10.20;99.90
14357;DHT22;7262;48.764;9.166;2024-03-02T20:53:42;10.20;99.90
14357;DHT22;7262;48.764;9.166;2024-03-02T21:06:32;10.10;99.90
14357;DHT22;7262;48.764;9.166;2024-03-02T21:08:59;10.00;99.90
14357;DHT22;7262;48.764;9.166;2024-03-02T21:11:26;9.80;99.90
14357;DHT22;7262;48.764;9.166;2024-03-02T21:13:53;9.70;99.90
14357;DHT22;7262;48.764;9.166;2024-03-02T21:16:19;9.70;99.90
14357;DHT22;7262;48.764;9.166;2024-03-02T21:18:46;9.60;99.90
14357;DHT22;7262;48.764;9.166;2024-03-02T21:21:14;9.50;99.90
14357;DHT22;7262;48.764;9.166;2024-03-02T21:23:42;9.50;99.90
14357;DHT22;7262;48.764;9.166;2024-03-02T21:26:09;9.40;99.90
14357;DHT22;7262;48.764;9.166;2024-03-02T21:28:36;9.40;99.90
14357;DHT22;7262;48.764;9.166;2024-03-02T21:31:03;9.30;99.90
14357;DHT22;7262;48.764;9.166;2024-03-02T21:33:30;9.40;99.90
14357;DHT22;7262;48.764;9.166;2024-03-02T21:35:57;9.30;99.90
14357;DHT22;7262;48.764;9.166;2024-03-02T21:38:24;9.40;99.90
14357;DHT22;7262;48.764;9.166;2024-03-02T21:40:52;9.30;99.90
14357;DHT22;7262;48.764;9.166;2024-03-02T21:43:19;9.30;99.90
14357;DHT22;7262;48.764;9.166;2024-03-02T21:45:46;9.30;99.90
14357;DHT22;7262;48.764;9.166;2024-03-02T21:48:13;9.30;99.90
14357;DHT22;7262;48.764;9.166;2024-03-02T21:50:39;9.30;99.90
14357;DHT22;7262;48.764;9.166;2024-03-02T21:53:06;9.40;99.90
14357;DHT22;7262;48.764;9.166;2024-03-02T22:03:20;9.30;99.90
14357;DHT22;7262;48.764;9.166;2024-03-02T22:05:47;9.20;99.90
14357;DHT22;7262;48.764;9.166;2024-03-02T22:08:14;9.20;99.90
14357;DHT22;7262;48.764;9.166;2024-03-02T22:10:43;9.30;99.90
14357;DHT22;7262;48.764;9.166;2024-03-02T22:13:10;9.20;99.90
14357;DHT22;7262;48.764;9.166;2024-03-02T22:15:37;9.20;99.90
14357;DHT22;7262;48.764;9.166;2024-03-02T22:18:04;9.20;99.90
14357;DHT22;7262;48.764;9.166;2024-03-02T22:20:32;9.20;99.90
14357;DHT22;7262;48.764;9.166;2024-03-02T22:22:59;9.10;99.90
14357;DHT22;7262;48.764;9.166;2024-03-02T22:25:26;9.10;99.90
14357;DHT22;7262;48.764;9.166;2024-03-02T22:27:52;9.10;99.90
14357;DHT22;7262;48.764;9.166;2024-03-02T22:30:21;9.10;99.90
14357;DHT22;7262;48.764;9.166;2024-03-02T22:32:48;9.10;99.90
14357;DHT22;7262;48.764;9.166;2024-03-02T22:35:15;9.00;99.90